Time;durP1;ratioP1;P1;durP2;ratioP2;P2;SDS_P1;SDS_P2;PMS_P1;PMS_P2;Temp;Humidity;BMP_temperature;BMP_pressure;BME280_temperature;BME280_humidity;BME280_pressure;Samples;Min_cycle;Max_cycle;Signal;HPM_P1;HPM_P2
2022/07/01 00:02:34;;;;;;;4.47;1.95;;;;;;;17.14;66.75;99885.13;5089137;28;20059;-56
2022/07/01 00:05:18;;;;;;;4.40;1.73;;;;;;;17.13;66.69;99873.75;5097391;28;20123;-55
2022/07/01 00:08:04;;;;;;;5.78;2.10;;;;;;;17.11;66.87;99862.47;5097137;28;20086;-55
2022/07/01 00:10:49;;;;;;;3.40;2.25;;;;;;;17.11;66.51;99862.47;5097264;28;20051;-55
2022/07/01 00:13:33;;;;;;;6.10;2.10;;;;;;;17.12;66.78;99850.22;5096405;28;20047;-55
2022/07/01 00:16:17;;;;;;;4.25;1.98;;;;;;;17.10;66.65;99841.53;5097471;28;20054;-55
2022/07/01 00:19:06;;;;;;;6.15;2.38;;;;;;;17.10;66.58;99842.41;5096204;28;20089;-56
2022/07/01 00:21:51;;;;;;;6.93;1.90;;;;;;;17.08;66.62;99844.19;5081738;28;20051;-55
2022/07/01 00:24:37;;;;;;;5.95;1.90;;;;;;;17.07;66.57;99854.66;5081982;28;20105;-55
2022/07/01 00:27:22;;;;;;;5.95;2.10;;;;;;;17.08;66.35;99851.16;5096641;28;20059;-56
2022/07/01 00:30:09;;;;;;;4.05;2.17;;;;;;;17.07;66.27;99859.91;5095858;28;20126;-57
2022/07/01 00:32:53;;;;;;;4.00;2.20;;;;;;;17.05;66.42;99873.03;5096966;28;20403;-55
2022/07/01 00:35:37;;;;;;;9.60;2.33;;;;;;;17.00;66.63;99886.19;5096651;28;20094;-55
2022/07/01 00:38:21;;;;;;;6.85;2.50;;;;;;;16.97;66.55;99891.44;5096700;28;20406;-56
2022/07/01 00:41:12;;;;;;;10.18;3.08;;;;;;;16.94;66.23;99891.44;5096710;28;20074;-55
2022/07/01 00:43:57;;;;;;;5.47;2.30;;;;;;;16.92;66.34;99901.06;5081569;28;20059;-55
2022/07/01 00:46:41;;;;;;;5.25;2.72;;;;;;;16.91;66.47;99912.41;5095942;28;20398;-55
2022/07/01 00:49:25;;;;;;;4.97;2.35;;;;;;;16.90;66.41;99908.94;5096397;28;20051;-56
2022/07/01 00:52:10;;;;;;;4.68;2.70;;;;;;;16.89;66.30;99915.06;5096361;28;20414;-55
2022/07/01 00:54:57;;;;;;;4.80;2.70;;;;;;;16.88;66.42;99923.81;5096118;28;20173;-55
2022/07/01 00:57:44;;;;;;;9.63;2.70;;;;;;;16.89;66.19;99937.78;5081334;28;20039;-55
2022/07/01 01:00:30;;;;;;;4.10;2.40;;;;;;;16.88;66.42;99939.50;5081013;28;20047;-56
2022/07/01 01:03:15;;;;;;;3.17;2.17;;;;;;;16.88;66.31;99930.81;5079382;28;20059;-56
2022/07/01 01:05:59;;;;;;;8.05;2.25;;;;;;;16.87;66.22;99927.31;5096019;28;20047;-55
2022/07/01 01:08:45;;;;;;;7.03;2.70;;;;;;;16.87;66.36;99929.91;5096510;28;20086;-55
2022/07/01 01:11:30;;;;;;;7.57;3.53;;;;;;;16.87;66.36;99934.31;5080781;28;20473;-55
2022/07/01 01:14:14;;;;;;;5.43;3.05;;;;;;;16.84;66.31;99929.94;5095729;28;20109;-55
2022/07/01 01:16:57;;;;;;;4.93;3.03;;;;;;;16.83;66.40;99929.97;5095943;28;20117;-55
2022/07/01 01:19:43;;;;;;;10.02;3.65;;;;;;;16.81;66.34;99916.03;5096152;28;20051;-55
2022/07/01 01:22:27;;;;;;;10.35;4.00;;;;;;;16.79;66.09;99918.69;5080801;28;20142;-55
2022/07/01 01:25:11;;;;;;;12.57;3.63;;;;;;;16.79;66.15;99920.41;5096128;28;20506;-55
2022/07/01 01:27:58;;;;;;;9.48;4.10;;;;;;;16.78;66.33;99921.31;5096301;28;20043;-55
2022/07/01 01:30:43;;;;;;;10.70;3.65;;;;;;;16.79;66.38;99930.88;5080580;28;20051;-55
2022/07/01 01:33:27;;;;;;;10.02;4.10;;;;;;;16.77;66.55;99932.66;5095736;28;20046;-55
2022/07/01 01:36:11;;;;;;;12.90;4.40;;;;;;;16.78;66.34;99939.63;5080291;28;20047;-55
2022/07/01 01:39:15;;;;;;;8.43;3.78;;;;;;;16.75;66.41;99945.75;5095960;28;20588;-55
2022/07/01 01:42:00;;;;;;;11.15;4.03;;;;;;;16.75;66.34;99945.75;5080637;28;20082;-55
2022/07/01 01:44:44;;;;;;;7.63;3.40;;;;;;;16.73;66.37;99953.66;5094944;28;20445;-55
2022/07/01 01:47:31;;;;;;;7.72;4.05;;;;;;;16.66;66.23;99948.50;5095576;28;20105;-55
2022/07/01 01:50:15;;;;;;;6.63;3.80;;;;;;;16.64;66.44;99945.03;5094669;28;20047;-55
2022/07/01 01:53:02;;;;;;;11.00;4.22;;;;;;;16.61;66.32;99955.50;5094972;28;20154;-55
2022/07/01 01:55:46;;;;;;;9.45;3.83;;;;;;;16.59;66.54;99963.34;5095579;28;20051;-56
2022/07/01 01:58:33;;;;;;;7.55;3.55;;;;;;;16.56;66.37;99958.19;5080317;28;20395;-55
2022/07/01 02:01:19;;;;;;;9.80;3.75;;;;;;;16.55;66.30;99936.38;5093955;28;20051;-55
2022/07/01 02:04:03;;;;;;;11.95;4.25;;;;;;;16.58;66.42;99907.56;5079670;28;20051;-56
2022/07/01 02:06:47;;;;;;;7.22;3.65;;;;;;;16.61;66.47;99904.03;5095164;28;20113;-56
2022/07/01 02:09:37;;;;;;;9.70;4.45;;;;;;;16.62;66.44;99923.25;5093952;28;20515;-56
2022/07/01 02:12:32;;;;;;;11.10;4.00;;;;;;;16.61;66.46;99935.44;5079793;28;20132;-55
2022/07/01 02:15:19;;;;;;;;;;;;;;;16.62;66.39;99952.03;5080001;28;20047;-56
2022/07/01 02:18:05;;;;;;;11.23;5.05;;;;;;;16.61;66.40;99955.50;5094481;28;19961;-56
2022/07/01 02:20:50;;;;;;;9.52;4.30;;;;;;;16.59;66.48;99960.75;5094109;28;20108;-56
2022/07/01 02:23:34;;;;;;;9.05;4.13;;;;;;;16.57;66.45;99941.59;5095181;28;20047;-55
2022/07/01 02:26:19;;;;;;;10.15;4.45;;;;;;;16.57;66.48;99929.38;5094335;28;20105;-55
2022/07/01 02:29:04;;;;;;;;;;;;;;;16.53;66.51;99939.91;5095215;28;20123;-57
2022/07/01 02:31:48;;;;;;;10.63;4.00;;;;;;;16.50;66.49;99951.28;5094848;28;20270;-57
2022/07/01 02:34:32;;;;;;;10.48;4.18;;;;;;;16.50;66.50;99958.22;5095331;28;20093;-56
2022/07/01 02:37:16;;;;;;;6.20;3.60;;;;;;;16.44;66.61;99960.00;5094960;28;20446;-56
2022/07/01 02:40:00;;;;;;;10.30;4.90;;;;;;;16.39;66.55;99950.47;5094784;28;20042;-56
2022/07/01 02:42:46;;;;;;;5.05;3.25;;;;;;;16.41;66.64;99952.22;5094107;28;20039;-56
2022/07/01 02:45:30;;;;;;;6.70;3.22;;;;;;;16.42;66.57;99955.69;5094668;28;20066;-56
2022/07/01 02:48:14;;;;;;;7.15;3.67;;;;;;;16.42;66.51;99966.16;5094441;28;20051;-56
2022/07/01 02:50:58;;;;;;;7.55;3.45;;;;;;;16.38;66.70;99964.44;5094457;28;20055;-56
2022/07/01 02:53:42;;;;;;;5.57;3.53;;;;;;;16.37;66.63;99953.13;5094001;28;20047;-56
2022/07/01 02:56:26;;;;;;;10.10;3.38;;;;;;;16.36;66.76;99943.53;5093797;28;20050;-56
2022/07/01 02:59:13;;;;;;;8.75;3.17;;;;;;;16.40;66.50;99949.59;5094076;28;20101;-56
2022/07/01 03:02:00;;;;;;;5.80;3.67;;;;;;;16.42;66.46;99960.91;5093761;28;20609;-56
2022/07/01 03:04:44;;;;;;;9.82;3.47;;;;;;;16.42;66.79;99974.88;5093386;28;20050;-57
2022/07/01 03:07:28;;;;;;;7.85;3.40;;;;;;;16.41;66.87;99980.09;5094139;28;20139;-56
2022/07/01 03:10:12;;;;;;;5.55;2.95;;;;;;;16.41;66.70;99993.19;5093826;28;20082;-56
2022/07/01 03:12:58;;;;;;;10.43;3.22;;;;;;;16.42;66.57;99974.88;5093743;28;20552;-56
2022/07/01 03:15:42;;;;;;;6.72;2.70;;;;;;;16.42;66.61;99969.66;5093035;28;20086;-56
2022/07/01 03:18:26;;;;;;;8.65;3.20;;;;;;;16.45;66.64;99997.50;5094006;28;20054;-56
2022/07/01 03:21:10;;;;;;;7.35;3.17;;;;;;;16.41;66.71;100011.50;5092661;28;20047;-56
2022/07/01 03:23:57;;;;;;;8.05;3.95;;;;;;;16.38;66.71;99993.22;5093410;28;20149;-56
2022/07/01 03:26:46;;;;;;;12.38;3.10;;;;;;;16.39;66.62;99997.56;5092973;28;20084;-56
2022/07/01 03:29:30;;;;;;;6.03;2.97;;;;;;;16.37;66.63;100005.44;5093732;28;20414;-56
2022/07/01 03:32:17;;;;;;;6.78;3.10;;;;;;;16.36;66.72;100019.38;5094013;28;20387;-56
2022/07/01 03:35:35;;;;;;;8.00;3.17;;;;;;;16.34;66.70;100010.69;5093499;28;20117;-56
2022/07/01 03:38:06;;;;;;;8.18;3.25;;;;;;;16.35;66.64;100028.09;5093442;28;20043;-56
2022/07/01 03:40:53;;;;;;;7.53;3.38;;;;;;;16.35;66.72;100022.03;5078218;28;20085;-56
2022/07/01 03:43:36;;;;;;;14.18;3.40;;;;;;;16.35;66.82;100020.25;5093348;28;20062;-56
2022/07/01 03:46:20;;;;;;;4.93;2.63;;;;;;;16.35;66.70;100030.72;5093346;28;20039;-57
2022/07/01 03:49:04;;;;;;;5.38;3.08;;;;;;;16.35;66.58;100022.88;5093320;28;20552;-56
2022/07/01 03:51:49;;;;;;;8.10;2.95;;;;;;;16.36;66.77;100028.97;5093555;28;20047;-56
2022/07/01 03:54:37;;;;;;;6.03;3.95;;;;;;;16.35;66.80;100033.34;5078434;28;20108;-56
2022/07/01 03:57:21;;;;;;;6.13;3.60;;;;;;;16.32;66.81;100029.88;5092354;28;20510;-56
2022/07/01 04:00:07;;;;;;;6.18;3.58;;;;;;;16.34;66.86;100030.75;5093228;28;20067;-56
2022/07/01 04:02:51;;;;;;;7.78;3.35;;;;;;;16.33;66.99;100024.63;5093447;28;20117;-56
2022/07/01 04:05:40;;;;;;;6.38;3.05;;;;;;;16.34;66.80;100031.59;5092989;28;20046;-56
2022/07/01 04:08:24;;;;;;;6.38;3.60;;;;;;;16.32;66.88;100038.59;5078062;28;20116;-56
2022/07/01 04:11:08;;;;;;;7.00;3.20;;;;;;;16.33;66.80;100040.31;5093008;28;20063;-56
2022/07/01 04:13:53;;;;;;;5.63;2.85;;;;;;;16.32;67.00;100028.13;5093599;28;20863;-57
2022/07/01 04:16:40;;;;;;;7.32;3.30;;;;;;;16.32;67.01;100027.28;5092401;28;20104;-56
2022/07/01 04:19:25;;;;;;;6.78;2.90;;;;;;;16.32;67.08;100037.72;5093538;28;20583;-56
2022/07/01 04:25:11;;;;;;;8.57;3.90;;;;;;;16.32;67.00;100041.19;5092764;28;19923;-55
2022/07/01 04:28:00;;;;;;;9.55;3.53;;;;;;;16.32;67.07;100038.59;5092805;28;20054;-55
2022/07/01 04:30:45;;;;;;;6.53;3.28;;;;;;;16.34;66.98;100030.75;5093059;28;20104;-55
2022/07/01 04:33:29;;;;;;;8.65;3.38;;;;;;;16.34;67.22;100023.75;5091973;28;20142;-55
2022/07/01 04:36:13;;;;;;;8.13;3.95;;;;;;;16.36;67.22;100018.50;5093710;28;20476;-55
2022/07/01 04:38:57;;;;;;;6.28;2.60;;;;;;;16.37;67.07;100013.28;5097434;28;20055;-55
2022/07/01 04:42:00;;;;;;;4.55;2.60;;;;;;;16.37;67.24;100026.34;5096469;28;20039;-55
2022/07/01 04:44:44;;;;;;;6.47;3.10;;;;;;;16.38;67.01;100029.81;5096799;28;20054;-55
2022/07/01 04:47:32;;;;;;;8.40;3.30;;;;;;;16.40;67.02;100030.69;5096815;28;20082;-55
2022/07/01 04:50:16;;;;;;;5.35;2.95;;;;;;;16.38;67.33;100035.94;5096618;28;20563;-55
2022/07/01 04:52:59;;;;;;;4.30;2.58;;;;;;;16.37;67.18;100049.88;5095488;28;20047;-55
2022/07/01 04:55:49;;;;;;;6.38;2.40;;;;;;;16.34;67.27;100057.75;5096959;28;20104;-55
2022/07/01 04:58:33;;;;;;;5.20;2.95;;;;;;;16.35;67.21;100053.41;5096441;28;20043;-55
2022/07/01 05:01:18;;;;;;;6.00;3.30;;;;;;;16.35;67.06;100049.03;5095745;28;20069;-55
2022/07/01 05:04:02;;;;;;;;;;;;;;;16.32;67.02;100051.66;5096711;28;20039;-56
2022/07/01 05:06:46;;;;;;;7.13;2.30;;;;;;;16.33;67.18;100061.25;5096679;28;19927;-55
2022/07/01 05:09:30;;;;;;;;;;;;;;;16.28;67.22;100060.41;5097276;28;20051;-55
2022/07/01 05:12:14;;;;;;;6.60;2.97;;;;;;;16.30;67.31;100058.66;5096474;28;19922;-55
2022/07/01 05:15:02;;;;;;;3.65;2.67;;;;;;;16.31;67.19;100057.78;5096308;28;20430;-55
2022/07/01 05:23:54;;;;;;;8.80;2.90;;;;;;;16.33;67.25;100063.00;5096179;28;20082;-56
2022/07/01 05:26:39;;;;;;;11.30;2.63;;;;;;;16.33;67.25;100060.38;5095609;28;20129;-57
2022/07/01 05:29:23;;;;;;;6.65;2.83;;;;;;;16.33;67.16;100063.00;5095946;28;20111;-56
2022/07/01 05:32:10;;;;;;;;;;;;;;;16.32;67.19;100053.44;5081282;28;20406;-56
2022/07/01 05:34:54;;;;;;;4.95;2.58;;;;;;;16.32;67.30;100050.81;5080757;28;19919;-56
2022/07/01 05:37:39;;;;;;;5.55;2.90;;;;;;;16.31;67.36;100055.16;5095791;28;20046;-56
2022/07/01 05:40:23;;;;;;;8.15;2.97;;;;;;;16.30;67.37;100066.50;5095588;28;20054;-56
2022/07/01 05:43:07;;;;;;;6.57;3.28;;;;;;;16.29;67.45;100065.63;5095378;28;20047;-56
2022/07/01 05:45:57;;;;;;;8.57;2.85;;;;;;;16.29;67.48;100067.38;5094531;28;20066;-56
2022/07/01 05:48:41;;;;;;;8.07;3.00;;;;;;;16.28;67.45;100065.63;5094838;28;20046;-56
2022/07/01 05:51:25;;;;;;;4.68;3.17;;;;;;;16.28;67.51;100074.38;5095479;28;20193;-56
2022/07/01 05:54:10;;;;;;;6.30;3.67;;;;;;;16.27;67.65;100077.84;5095338;28;20465;-56
2022/07/01 05:56:57;;;;;;;;;;;;;;;16.26;67.51;100075.25;5095658;28;20101;-56
2022/07/01 05:59:41;;;;;;;4.10;2.88;;;;;;;16.24;67.63;100069.16;5095666;28;20390;-56
2022/07/01 06:02:26;;;;;;;3.53;2.85;;;;;;;16.26;67.67;100076.13;5095097;28;20148;-57
2022/07/01 06:05:13;;;;;;;6.22;3.13;;;;;;;16.25;67.79;100078.75;5095166;28;20131;-56
2022/07/01 06:07:58;;;;;;;6.47;2.90;;;;;;;16.22;67.64;100078.75;5094352;28;20134;-56
2022/07/01 06:10:41;;;;;;;5.38;2.70;;;;;;;16.23;67.60;100076.13;5095008;28;20043;-57
2022/07/01 06:13:28;;;;;;;4.53;2.50;;;;;;;16.24;67.68;100080.47;5080337;28;20459;-56
2022/07/01 06:16:15;;;;;;;5.40;3.03;;;;;;;16.27;67.90;100074.38;5095229;28;20039;-56
2022/07/01 06:18:59;;;;;;;5.20;3.40;;;;;;;16.29;67.70;100077.81;5095456;28;20043;-56
2022/07/01 06:21:43;;;;;;;4.82;2.75;;;;;;;16.30;67.90;100074.34;5094089;28;20071;-56
2022/07/01 06:24:28;;;;;;;10.60;3.83;;;;;;;16.29;67.69;100081.31;5093913;28;20042;-56
2022/07/01 06:27:11;;;;;;;9.93;3.03;;;;;;;16.30;67.82;100082.19;5094788;28;20062;-56
2022/07/01 06:29:56;;;;;;;6.03;3.40;;;;;;;16.29;67.78;100086.56;5095050;28;20066;-56
2022/07/01 06:32:45;;;;;;;6.18;3.03;;;;;;;16.30;67.73;100097.88;5094779;28;20454;-56
2022/07/01 06:35:29;;;;;;;7.03;2.95;;;;;;;16.31;67.73;100083.06;5079285;28;20533;-56
2022/07/01 06:38:13;;;;;;;5.57;3.03;;;;;;;16.32;67.87;100085.66;5094757;28;20096;-55
2022/07/01 06:44:04;;;;;;;6.25;3.35;;;;;;;16.31;67.78;100090.91;5094356;28;20039;-55
2022/07/01 06:46:48;;;;;;;6.78;3.10;;;;;;;16.29;68.06;100089.16;5079446;28;20097;-55
2022/07/01 06:49:32;;;;;;;;;;;;;;;16.30;67.63;100092.63;5079841;28;20059;-55
2022/07/01 06:52:16;;;;;;;11.23;2.85;;;;;;;16.29;67.84;100090.91;5079018;28;19963;-54
2022/07/01 06:55:00;;;;;;;9.38;2.90;;;;;;;16.30;67.85;100095.25;5094016;28;20465;-55
2022/07/01 06:57:44;;;;;;;5.53;2.58;;;;;;;16.29;67.75;100096.13;5094021;28;20046;-56
2022/07/01 07:00:28;;;;;;;7.20;2.90;;;;;;;16.29;67.75;100091.78;5094170;28;20510;-54
2022/07/01 07:03:12;;;;;;;;;;;;;;;16.28;67.73;100099.63;5094527;28;20109;-54
2022/07/01 07:05:57;;;;;;;7.82;2.72;;;;;;;16.29;67.99;100096.13;5094081;28;19977;-55
2022/07/01 07:08:41;;;;;;;;;;;;;;;16.29;67.66;100097.03;5094512;28;20046;-55
2022/07/01 07:11:25;;;;;;;7.25;2.70;;;;;;;16.29;67.96;100101.38;5093777;28;20291;-55
2022/07/01 07:14:10;;;;;;;6.28;2.42;;;;;;;16.31;67.90;100098.75;5094050;28;20625;-55
2022/07/01 07:16:55;;;;;;;7.47;2.35;;;;;;;16.30;67.97;100105.72;5094182;28;20050;-56
2022/07/01 07:19:39;;;;;;;6.82;2.50;;;;;;;16.33;67.82;100104.84;5093174;28;20039;-57
2022/07/01 07:22:23;;;;;;;9.00;2.35;;;;;;;16.33;67.74;100107.47;5093484;28;20050;-56
2022/07/01 07:25:07;;;;;;;6.38;3.20;;;;;;;16.35;67.75;100103.09;5093723;28;20097;-56
2022/07/01 07:27:51;;;;;;;5.30;2.10;;;;;;;16.35;67.68;100118.78;5093623;28;20478;-56
2022/07/01 07:30:36;;;;;;;5.07;2.20;;;;;;;16.34;67.60;100119.66;5079042;28;20050;-56
2022/07/01 07:33:19;;;;;;;3.97;2.30;;;;;;;16.33;67.67;100129.25;5078358;28;20415;-54
2022/07/01 07:36:04;;;;;;;8.93;2.13;;;;;;;16.34;67.72;100130.97;5093370;28;20047;-55
2022/07/01 07:38:48;;;;;;;8.05;2.30;;;;;;;16.32;67.74;100129.25;5093500;28;20071;-55
2022/07/01 07:41:32;;;;;;;5.75;2.15;;;;;;;16.33;67.43;100134.47;5092753;28;20113;-54
2022/07/01 07:44:16;;;;;;;7.47;2.00;;;;;;;16.33;67.72;100136.22;5093307;28;20533;-54
2022/07/01 07:47:00;;;;;;;7.07;2.33;;;;;;;16.32;67.58;100137.09;5093367;28;20043;-55
2022/07/01 07:49:44;;;;;;;4.72;2.38;;;;;;;16.33;67.47;100139.69;5093482;28;20105;-55
2022/07/01 07:52:28;;;;;;;4.28;2.10;;;;;;;16.32;67.46;100137.09;5093130;28;20128;-55
2022/07/01 07:55:12;;;;;;;3.10;1.70;;;;;;;16.30;67.50;100131.88;5078525;28;20118;-55
2022/07/01 07:57:56;;;;;;;4.53;1.65;;;;;;;16.32;67.39;100131.88;5093619;28;20100;-55
2022/07/01 08:00:40;;;;;;;6.95;1.88;;;;;;;16.34;67.52;100125.75;5093544;28;20411;-55
2022/07/01 08:03:24;;;;;;;2.97;1.58;;;;;;;16.37;67.46;100130.09;5093360;28;20148;-55
2022/07/01 08:06:08;;;;;;;4.70;2.00;;;;;;;16.38;67.34;100127.47;5093330;28;20047;-55
2022/07/01 08:08:55;;;;;;;2.90;1.67;;;;;;;16.38;67.56;100129.19;5093635;28;20086;-55
2022/07/01 08:11:39;;;;;;;4.60;1.52;;;;;;;16.39;67.32;100137.06;5094475;28;20046;-55
2022/07/01 08:14:23;;;;;;;6.40;1.77;;;;;;;16.38;67.48;100137.94;5097171;28;20047;-55
2022/07/01 08:17:07;;;;;;;2.40;1.80;;;;;;;16.34;67.24;100137.97;5097419;28;20047;-56
2022/07/01 08:19:51;;;;;;;6.00;1.85;;;;;;;16.33;67.15;100144.94;5097540;28;20108;-54
2022/07/01 08:22:37;;;;;;;8.00;2.33;;;;;;;16.33;67.03;100136.22;5081419;28;20051;-56
2022/07/01 08:25:24;;;;;;;4.20;2.28;;;;;;;16.33;67.01;100141.47;5096954;28;20161;-56
2022/07/01 08:28:10;;;;;;;3.30;1.60;;;;;;;16.35;67.07;100150.16;5097050;28;20530;-56
2022/07/01 08:30:55;;;;;;;2.85;1.25;;;;;;;16.33;66.93;100154.53;5097278;28;20508;-56
2022/07/01 08:33:40;;;;;;;5.53;2.08;;;;;;;16.34;66.77;100154.50;5081819;28;20038;-56
2022/07/01 08:36:24;;;;;;;4.13;1.63;;;;;;;16.35;66.84;100160.63;5097207;28;20063;-56
2022/07/01 08:39:08;;;;;;;5.38;1.77;;;;;;;16.35;66.98;100156.25;5096640;28;20039;-56
2022/07/01 08:41:52;;;;;;;5.13;1.70;;;;;;;16.38;66.84;100151.00;5096685;28;20134;-56
2022/07/01 08:44:36;;;;;;;2.42;1.60;;;;;;;16.41;66.94;100152.72;5096636;28;20059;-55
2022/07/01 08:47:20;;;;;;;4.03;1.50;;;;;;;16.43;66.97;100164.06;5097012;28;20105;-58
2022/07/01 08:50:04;;;;;;;5.90;1.77;;;;;;;16.42;66.76;100168.44;5095630;28;20070;-55
2022/07/01 08:52:49;;;;;;;2.92;1.55;;;;;;;16.42;66.81;100165.81;5096562;28;20128;-56
2022/07/01 08:56:40;;;;;;;5.95;2.03;;;;;;;16.42;66.73;100171.06;5096193;28;20042;-56
2022/07/01 08:58:37;;;;;;;;;;;;;;;16.40;66.50;100178.03;5096438;28;20051;-55
2022/07/01 09:01:24;;;;;;;3.58;1.52;;;;;;;16.39;66.62;100178.91;5095997;28;20022;-55
2022/07/01 09:04:17;;;;;;;4.95;2.13;;;;;;;16.40;66.76;100187.59;5081325;28;20071;-55
2022/07/01 09:07:07;;;;;;;3.50;1.45;;;;;;;16.39;66.69;100186.75;5081183;28;20043;-55
2022/07/01 09:09:51;;;;;;;3.03;1.70;;;;;;;16.40;66.76;100182.38;5081315;28;20559;-54
2022/07/01 09:12:40;;;;;;;5.68;2.63;;;;;;;16.42;66.86;100188.47;5096289;28;20135;-55
2022/07/01 09:15:25;;;;;;;1.55;1.33;;;;;;;16.46;66.90;100189.31;5081067;28;20047;-55
2022/07/01 09:18:15;;;;;;;4.35;1.52;;;;;;;16.48;66.70;100183.22;5096296;28;20051;-56
2022/07/01 09:21:00;;;;;;;1.85;1.60;;;;;;;16.51;66.78;100179.69;5080240;28;20101;-56
2022/07/01 09:23:44;;;;;;;2.42;1.73;;;;;;;16.53;66.84;100188.41;5094771;28;20086;-56
2022/07/01 09:26:29;;;;;;;3.28;1.75;;;;;;;16.54;66.55;100170.06;5095928;28;20407;-56
2022/07/01 09:29:13;;;;;;;2.03;1.70;;;;;;;16.56;66.71;100184.03;5080675;28;20051;-56
2022/07/01 09:31:59;;;;;;;3.13;1.58;;;;;;;16.58;66.69;100186.66;5095944;28;20051;-56
2022/07/01 09:34:49;;;;;;;3.97;1.55;;;;;;;16.60;66.71;100190.09;5080705;28;20051;-56
2022/07/01 09:37:34;;;;;;;7.03;1.80;;;;;;;16.61;66.65;100199.69;5080269;28;20070;-57
2022/07/01 09:40:18;;;;;;;5.93;1.98;;;;;;;16.59;66.35;100196.19;5095828;28;20091;-56
2022/07/01 09:43:02;;;;;;;6.05;1.83;;;;;;;16.58;66.42;100199.72;5095494;28;20074;-56
2022/07/01 09:46:10;;;;;;;3.10;1.50;;;;;;;16.56;66.31;100207.56;5095784;28;20058;-56
2022/07/01 09:48:54;;;;;;;5.85;1.67;;;;;;;16.56;66.34;100212.81;5080142;28;20054;-56
2022/07/01 09:51:39;;;;;;;9.52;1.92;;;;;;;16.58;66.57;100212.81;5080100;28;20113;-56
2022/07/01 09:54:23;;;;;;;5.03;2.15;;;;;;;16.55;66.24;100210.19;5095729;28;20043;-57
2022/07/01 09:57:06;;;;;;;3.47;2.15;;;;;;;16.55;66.25;100205.81;5095123;28;20086;-56
2022/07/01 09:59:51;;;;;;;6.18;1.85;;;;;;;16.55;66.19;100220.66;5095134;28;20110;-56
2022/07/01 10:02:39;;;;;;;4.85;1.80;;;;;;;16.54;66.19;100211.94;5094080;28;20091;-56
2022/07/01 10:05:25;;;;;;;3.38;1.65;;;;;;;16.56;66.43;100219.78;5079831;28;20042;-56
2022/07/01 10:08:15;;;;;;;3.85;1.63;;;;;;;16.59;66.49;100215.41;5080379;28;20109;-56
2022/07/01 10:11:27;;;;;;;3.28;1.60;;;;;;;16.60;66.21;100218.88;5093996;28;20609;-57
2022/07/01 10:14:13;;;;;;;2.45;1.58;;;;;;;16.62;66.18;100218.88;5094572;28;20054;-56
2022/07/01 10:16:57;;;;;;;5.57;1.50;;;;;;;16.63;66.40;100218.84;5080053;28;20043;-56
2022/07/01 10:19:41;;;;;;;4.60;1.80;;;;;;;16.64;66.42;100223.22;5080441;28;20054;-56
2022/07/01 10:22:34;;;;;;;6.45;1.95;;;;;;;16.66;66.29;100220.63;5094905;28;20126;-56
2022/07/01 10:25:33;;;;;;;3.63;2.08;;;;;;;16.65;66.35;100218.88;5079362;28;20044;-56
2022/07/01 10:28:28;;;;;;;3.83;1.67;;;;;;;16.65;66.31;100224.97;5093918;28;20127;-56
2022/07/01 10:31:17;;;;;;;12.93;6.43;;;;;;;16.67;66.22;100224.94;5079435;28;20094;-56
2022/07/01 10:34:02;;;;;;;41.38;28.00;;;;;;;16.74;66.18;100230.13;5078710;28;20101;-58
2022/07/01 10:37:00;;;;;;;21.00;11.27;;;;;;;16.81;65.56;100214.38;5094828;28;20153;-57
2022/07/01 10:39:53;;;;;;;12.07;5.70;;;;;;;16.87;65.59;100220.44;5094590;28;20102;-58
2022/07/01 10:43:04;;;;;;;7.03;3.85;;;;;;;16.92;65.42;100223.03;5093531;28;20097;-56
2022/07/01 10:45:51;;;;;;;11.25;3.55;;;;;;;16.92;65.46;100227.41;5094136;28;20097;-56
2022/07/01 10:48:35;;;;;;;6.10;2.92;;;;;;;16.88;65.35;100216.94;5093512;28;20101;-58
2022/07/01 10:52:01;;;;;;;3.35;1.85;;;;;;;16.86;65.25;100210.84;5094119;28;20047;-58
2022/07/01 10:54:48;;;;;;;3.38;1.67;;;;;;;16.88;65.25;100218.72;5078769;28;20112;-56
2022/07/01 10:57:38;;;;;;;7.90;2.28;;;;;;;16.93;65.19;100214.28;5093402;28;20039;-56
2022/07/01 11:00:22;;;;;;;3.90;2.30;;;;;;;16.98;65.20;100209.94;5078798;28;20093;-57
2022/07/01 11:03:08;;;;;;;7.75;2.05;;;;;;;17.02;65.18;100209.03;5094478;28;20098;-56
2022/07/01 11:05:55;;;;;;;3.97;1.80;;;;;;;17.02;65.19;100211.66;5094198;28;20155;-56
2022/07/01 11:08:39;;;;;;;4.03;1.73;;;;;;;17.00;65.27;100215.16;5094003;28;20051;-57
2022/07/01 11:11:24;;;;;;;6.18;2.35;;;;;;;16.97;64.98;100204.72;5094257;28;20088;-56
2022/07/01 11:14:08;;;;;;;4.43;1.67;;;;;;;17.02;64.97;100210.78;5093516;28;20097;-56
2022/07/01 11:16:52;;;;;;;3.03;1.73;;;;;;;17.02;64.79;100206.41;5093739;28;20082;-56
2022/07/01 11:19:36;;;;;;;3.17;1.92;;;;;;;17.00;64.70;100202.06;5093477;28;20070;-58
2022/07/01 11:22:23;;;;;;;4.43;1.90;;;;;;;16.97;64.51;100207.34;5093442;28;20110;-57
2022/07/01 11:25:10;;;;;;;3.75;1.63;;;;;;;17.00;64.47;100197.72;5078666;28;20181;-56
2022/07/01 11:27:54;;;;;;;3.45;1.77;;;;;;;17.06;64.60;100204.63;5093671;28;20513;-58
2022/07/01 11:30:38;;;;;;;7.78;1.90;;;;;;;17.12;64.70;100199.38;5093731;28;20097;-59
2022/07/01 11:33:22;;;;;;;4.50;1.77;;;;;;;17.20;64.64;100208.00;5093814;28;20097;-58
2022/07/01 11:39:23;;;;;;;2.55;1.55;;;;;;;17.25;63.94;100202.72;5093955;28;20529;-58
2022/07/01 11:42:09;;;;;;;3.88;1.50;;;;;;;17.30;63.86;100202.66;5093370;28;20046;-58
2022/07/01 11:44:53;;;;;;;3.70;1.50;;;;;;;17.32;63.58;100204.41;5078627;28;20054;-58
2022/07/01 11:47:37;;;;;;;2.55;1.48;;;;;;;17.24;63.36;100206.22;5077499;28;20059;-57
2022/07/01 11:50:21;;;;;;;6.05;1.63;;;;;;;17.18;63.20;100203.69;5092790;28;20459;-58
2022/07/01 11:53:07;;;;;;;3.65;1.38;;;;;;;17.14;62.91;100200.19;5093463;28;20422;-58
2022/07/01 11:55:51;;;;;;;5.32;1.70;;;;;;;17.19;63.48;100198.41;5078963;28;20087;-58
2022/07/01 11:58:47;;;;;;;5.43;1.50;;;;;;;17.26;62.75;100199.22;5093384;28;20106;-58
2022/07/01 12:01:34;;;;;;;2.55;1.45;;;;;;;17.27;63.09;100198.34;5093491;28;20063;-58
2022/07/01 12:04:18;;;;;;;2.28;1.20;;;;;;;17.28;63.11;100204.47;5093192;28;20409;-58
2022/07/01 12:07:03;;;;;;;2.58;1.30;;;;;;;17.22;62.11;100209.75;5078223;28;20043;-57
2022/07/01 12:09:48;;;;;;;1.75;1.40;;;;;;;17.24;62.63;100208.84;5077777;28;20043;-58
2022/07/01 12:12:33;;;;;;;2.92;1.33;;;;;;;17.23;62.56;100203.63;5093310;28;20105;-58
2022/07/01 12:15:17;;;;;;;2.47;1.50;;;;;;;17.24;62.26;100214.06;5093669;28;20089;-58
2022/07/01 12:18:06;;;;;;;3.30;1.40;;;;;;;17.29;62.61;100208.78;5093304;28;20123;-58
2022/07/01 12:20:53;;;;;;;2.42;1.40;;;;;;;17.31;62.51;100213.16;5093514;28;20094;-56
2022/07/01 12:23:37;;;;;;;2.72;1.55;;;;;;;17.30;62.29;100215.78;5078343;28;20046;-58
2022/07/01 12:26:22;;;;;;;1.45;1.35;;;;;;;17.31;62.53;100207.03;5078014;28;20051;-58
2022/07/01 12:29:07;;;;;;;1.83;1.50;;;;;;;17.33;62.53;100221.88;5078203;28;20090;-59
2022/07/01 12:32:04;;;;;;;2.92;1.85;;;;;;;17.34;61.92;100221.00;5078033;28;20055;-58
2022/07/01 12:34:54;;;;;;;2.03;1.42;;;;;;;17.42;62.28;100220.03;5093104;28;20047;-58
2022/07/01 12:37:38;;;;;;;2.65;1.58;;;;;;;17.42;61.97;100223.53;5078083;28;20093;-58
2022/07/01 12:40:29;;;;;;;2.08;1.35;;;;;;;17.43;62.00;100216.53;5093271;28;20094;-58
2022/07/01 12:43:43;;;;;;;2.42;1.58;;;;;;;17.43;61.15;100220.03;5077255;28;20051;-58
2022/07/01 12:46:33;;;;;;;2.80;1.80;;;;;;;17.41;61.64;100224.41;5070986;28;20055;-58
2022/07/01 12:49:25;;;;;;;2.53;1.25;;;;;;;17.44;61.55;100213.03;5078052;28;20055;-58
2022/07/01 12:52:27;;;;;;;1.58;1.10;;;;;;;17.50;61.64;100212.97;5092482;28;20093;-58
2022/07/01 12:55:20;;;;;;;3.63;1.63;;;;;;;17.49;61.50;100224.34;5092917;28;20510;-58
2022/07/01 12:58:26;;;;;;;3.97;1.63;;;;;;;17.49;61.18;100216.50;5079461;28;20070;-58
2022/07/01 13:01:10;;;;;;;3.75;1.98;;;;;;;17.55;61.62;100221.66;5081046;28;20051;-58
2022/07/01 13:03:53;;;;;;;2.90;1.80;;;;;;;17.56;60.75;100217.28;5096591;28;20510;-58
2022/07/01 13:06:40;;;;;;;4.10;1.40;;;;;;;17.59;61.04;100214.66;5096009;28;20062;-59
2022/07/01 13:09:28;;;;;;;6.63;1.50;;;;;;;17.63;61.58;100211.09;5081252;28;20049;-58
2022/07/01 13:12:12;;;;;;;2.60;1.17;;;;;;;17.63;60.92;100227.69;5095541;28;20066;-58
2022/07/01 13:14:57;;;;;;;2.47;1.58;;;;;;;17.63;59.83;100219.84;5095845;28;20111;-58